Decoded Metar for CYKP ( in ) (IATA:) | Meteo·Mobile Aviation Weather
aviador You're here:

CYKP Decoded Metar

in
Report Time2019-01-19 01:00:00
UTC Time2019-01-19 01:50:10
Flight Rules vfr VFR
Wind270° at 07 kt
W.Decomp.*RWY 27: 7.0 kt HW 0 kt LCW
W.Rank270° ranks 8
Current wind is below 270° avg. (7.8)
Visibility9999 m
Phenomena:N/A
Clouds:N/A
Expected CloudBase > 1,600 ft AGL from Temp-Dew spread
CeilingNone
Temp-31°C
Dew Point-35°C (68% RH)
AAT-37.4°C
QNH1028 hPa
Raw Report
METAR CYKP 190100Z AUTO 27007KT 9SM CLR M31/M35 A3037 RMK ICG INTMT SLP328=

Extra information for CYKP:More info

Social comments